Flight Track Log - Related Links

Times and Time Zones

All times are in EDT time to prevent confusion due to time zone crossing. See the DAL3606 flight status page for this flight to view local times or setup timezone preferences in your user account.

Time Position Orientation Groundspeed Altitude Reporting Facility
EDT Latitude Longitude Course Direction KTS MPH feet Rate Location/Type
Mon 05:28:04 PM 44.8667 -93.1500 66° East 161 185 2,200  Level Minneapolis TRACON
Mon 05:28:39 PM 44.8656 -93.1219 93° East 178 205 3,100 2,500 Climbing Minneapolis Center
Mon 05:29:40 PM 44.8953 -93.0650 54° Northeast 209 241 6,200 1,902 Climbing Minneapolis Center
Mon 05:30:42 PM 44.9586 -93.0281 22° Northeast 254 292 7,000 1,403 Climbing Minneapolis Center
Mon 05:31:44 PM 45.0303 -92.9806 25° Northeast 280 322 9,100 2,419 Climbing Minneapolis Center
Mon 05:32:46 PM 45.1056 -92.8889 41° Northeast 310 357 12,000 2,468 Climbing Minneapolis Center
Mon 05:33:00 PM 45.0323 -92.6327 66° East  Level FlightAware Approximate
Mon 05:33:48 PM 45.1650 -92.7919 49° Northeast 324 373 14,200  Level Minneapolis Center
Mon 05:34:49 PM 45.2253 -92.6933 49° Northeast 328 377 16,400 1,951 Climbing Minneapolis Center
Mon 05:35:51 PM 45.2653 -92.5656 66° East 368 423 18,200 1,597 Climbing Minneapolis Center
Mon 05:36:53 PM 45.2742 -92.4197 85° East 376 433 19,700 1,333 Climbing Minneapolis Center
Mon 05:37:57 PM 45.2511 -92.2636 102° East 400 460 21,000 1,440 Climbing Minneapolis Center
Mon 05:38:58 PM 45.2236 -92.0722 101° East 409 471 22,700 976 Climbing Minneapolis Center
Mon 05:40:00 PM 45.2006 -91.9056 101° East 426 490 23,000 145 Climbing Minneapolis Center
Mon 05:41:02 PM 45.1731 -91.7219 102° East 460 529 23,000  Level Minneapolis Center
Mon 05:42:04 PM 45.1450 -91.5325 102° East 483 556 23,000  Level Minneapolis Center
Mon 05:43:05 PM 45.1161 -91.3414 102° East 489 563 23,000  Level Minneapolis Center
Mon 05:44:07 PM 45.0883 -91.1497 102° East 494 568 23,000 -532 Level Minneapolis Center
Mon 05:45:09 PM 45.0592 -90.9583 102° East 495 570 21,900 -2,195 Descending Minneapolis Center
Mon 05:46:10 PM 45.0281 -90.7731 103° East 486 559 18,500 -3,707 Descending Minneapolis Center
Mon 05:47:12 PM 44.9733 -90.5722 111° Southeast 460 529 14,300 -3,774 Descending Minneapolis Center
Mon 05:48:14 PM 44.9289 -90.4072 111° Southeast 435 501 10,700 -2,371 Descending Minneapolis Center
Mon 05:49:16 PM 44.8953 -90.2825 111° Southeast 352 405 9,400 -1,561 Descending Minneapolis Center
Mon 05:50:17 PM 44.8642 -90.1672 111° Southeast 306 352 7,500 -1,805 Descending Minneapolis Center
Mon 05:51:19 PM 44.8358 -90.0636 111° Southeast 277 319 5,700 -1,790 Descending Minneapolis Center
Mon 05:52:21 PM 44.8097 -89.9653 110° East 262 302 3,800 -1,317 Descending Minneapolis Center
Mon 05:53:22 PM 44.7831 -89.8711 112° Southeast 253 291 3,000 -390 Descending Minneapolis Center
Mon 05:54:24 PM 44.7622 -89.7986 112° Southeast 214 246 3,000 -435 Level Minneapolis Center
Mon 05:55:26 PM 44.7714 -89.7300 79° East 175 201 2,100 -484 Descending Minneapolis Center
Mon 05:56:28 PM 44.7800 -89.6725 78° East 171 197 2,000 -97 Descending Minneapolis Center
Mon 05:58:00 PM 44.7776 -89.6668 90° East  Level Estimated
Mon 06:05:00 PM 44.7776 -89.6668 90° East  Level Estimated

Login

Don't have an account? Register now (free) for customized features, flight alerts, and more!